sensor_id;sensor_type;location;lat;lon;timestamp;temperature;humidity
45012;DHT22;63444;48.148;11.542;2023-04-16T00:01:03;6.10;99.90
45012;DHT22;63444;48.148;11.542;2023-04-16T00:03:29;6.20;99.90
45012;DHT22;63444;48.148;11.542;2023-04-16T00:05:54;6.10;99.90
45012;DHT22;63444;48.148;11.542;2023-04-16T00:08:21;6.10;99.90
45012;DHT22;63444;48.148;11.542;2023-04-16T00:10:49;6.20;99.90
45012;DHT22;63444;48.148;11.542;2023-04-16T00:13:15;6.10;99.90
45012;DHT22;63444;48.148;11.542;2023-04-16T00:15:41;6.10;99.90
45012;DHT22;63444;48.148;11.542;2023-04-16T00:18:06;6.10;99.90
45012;DHT22;63444;48.148;11.542;2023-04-16T00:20:32;6.10;99.90
45012;DHT22;63444;48.148;11.542;2023-04-16T00:22:57;6.10;99.90
45012;DHT22;63444;48.148;11.542;2023-04-16T00:25:23;6.10;99.90
45012;DHT22;63444;48.148;11.542;2023-04-16T00:27:49;6.00;99.90
45012;DHT22;63444;48.148;11.542;2023-04-16T00:30:14;6.00;99.90
45012;DHT22;63444;48.148;11.542;2023-04-16T00:32:40;6.10;99.90
45012;DHT22;63444;48.148;11.542;2023-04-16T00:35:06;6.00;99.90
45012;DHT22;63444;48.148;11.542;2023-04-16T00:37:32;6.00;99.90
45012;DHT22;63444;48.148;11.542;2023-04-16T00:39:57;6.00;99.90
45012;DHT22;63444;48.148;11.542;2023-04-16T00:42:23;6.00;99.90
45012;DHT22;63444;48.148;11.542;2023-04-16T00:44:48;6.00;99.90
45012;DHT22;63444;48.148;11.542;2023-04-16T00:47:14;5.90;99.90
45012;DHT22;63444;48.148;11.542;2023-04-16T00:49:40;5.90;99.90
45012;DHT22;63444;48.148;11.542;2023-04-16T00:52:06;5.90;99.90
45012;DHT22;63444;48.148;11.542;2023-04-16T00:54:32;6.00;99.90
45012;DHT22;63444;48.148;11.542;2023-04-16T00:56:58;5.90;99.90
45012;DHT22;63444;48.148;11.542;2023-04-16T00:59:24;5.90;99.90
45012;DHT22;63444;48.148;11.542;2023-04-16T01:01:49;6.00;99.90
45012;DHT22;63444;48.148;11.542;2023-04-16T01:04:15;5.90;99.90
45012;DHT22;63444;48.148;11.542;2023-04-16T01:06:41;5.90;99.90
45012;DHT22;63444;48.148;11.542;2023-04-16T01:09:06;6.00;99.90
45012;DHT22;63444;48.148;11.542;2023-04-16T01:11:32;6.00;99.90
45012;DHT22;63444;48.148;11.542;2023-04-16T01:13:58;6.00;99.90
45012;DHT22;63444;48.148;11.542;2023-04-16T01:16:23;6.00;99.90
45012;DHT22;63444;48.148;11.542;2023-04-16T01:18:51;6.00;99.90
45012;DHT22;63444;48.148;11.542;2023-04-16T01:21:16;6.00;99.90
45012;DHT22;63444;48.148;11.542;2023-04-16T01:23:42;6.00;99.90
45012;DHT22;63444;48.148;11.542;2023-04-16T01:26:07;6.00;99.90
45012;DHT22;63444;48.148;11.542;2023-04-16T01:28:33;6.00;99.90
45012;DHT22;63444;48.148;11.542;2023-04-16T01:30:59;6.00;99.90
45012;DHT22;63444;48.148;11.542;2023-04-16T01:33:25;6.00;99.90
45012;DHT22;63444;48.148;11.542;2023-04-16T01:35:50;6.00;99.90
45012;DHT22;63444;48.148;11.542;2023-04-16T01:38:16;6.00;99.90
45012;DHT22;63444;48.148;11.542;2023-04-16T01:40:41;6.10;99.90
45012;DHT22;63444;48.148;11.542;2023-04-16T01:43:07;6.00;99.90
45012;DHT22;63444;48.148;11.542;2023-04-16T01:45:33;6.20;99.90
45012;DHT22;63444;48.148;11.542;2023-04-16T01:47:59;6.10;99.90
45012;DHT22;63444;48.148;11.542;2023-04-16T01:50:25;6.10;99.90
45012;DHT22;63444;48.148;11.542;2023-04-16T01:52:51;6.10;99.90
45012;DHT22;63444;48.148;11.542;2023-04-16T01:55:17;6.00;99.90
45012;DHT22;63444;48.148;11.542;2023-04-16T01:57:42;6.00;99.90
45012;DHT22;63444;48.148;11.542;2023-04-16T02:00:08;6.00;99.90
45012;DHT22;63444;48.148;11.542;2023-04-16T02:02:34;6.00;99.90
45012;DHT22;63444;48.148;11.542;2023-04-16T02:05:01;5.90;99.90
45012;DHT22;63444;48.148;11.542;2023-04-16T02:07:26;6.00;99.90
45012;DHT22;63444;48.148;11.542;2023-04-16T02:09:52;6.10;99.90
45012;DHT22;63444;48.148;11.542;2023-04-16T02:12:18;6.20;99.90
45012;DHT22;63444;48.148;11.542;2023-04-16T02:14:44;6.10;99.90
45012;DHT22;63444;48.148;11.542;2023-04-16T02:17:10;5.90;99.90
45012;DHT22;63444;48.148;11.542;2023-04-16T02:19:36;5.90;99.90
45012;DHT22;63444;48.148;11.542;2023-04-16T02:22:02;6.00;99.90
45012;DHT22;63444;48.148;11.542;2023-04-16T02:24:27;6.20;99.90
45012;DHT22;63444;48.148;11.542;2023-04-16T02:26:53;6.10;99.90
45012;DHT22;63444;48.148;11.542;2023-04-16T02:29:19;6.00;99.90
45012;DHT22;63444;48.148;11.542;2023-04-16T02:31:45;6.00;99.90
45012;DHT22;63444;48.148;11.542;2023-04-16T02:34:11;6.00;99.90
45012;DHT22;63444;48.148;11.542;2023-04-16T02:36:37;6.00;99.90
45012;DHT22;63444;48.148;11.542;2023-04-16T02:39:03;6.00;99.90
45012;DHT22;63444;48.148;11.542;2023-04-16T02:41:28;6.10;99.90
45012;DHT22;63444;48.148;11.542;2023-04-16T02:43:54;6.10;99.90
45012;DHT22;63444;48.148;11.542;2023-04-16T02:46:20;6.10;99.90
45012;DHT22;63444;48.148;11.542;2023-04-16T02:48:46;6.10;99.90
45012;DHT22;63444;48.148;11.542;2023-04-16T02:51:12;6.00;99.90
45012;DHT22;63444;48.148;11.542;2023-04-16T02:53:37;6.00;99.90
45012;DHT22;63444;48.148;11.542;2023-04-16T02:56:03;6.10;99.90
45012;DHT22;63444;48.148;11.542;2023-04-16T02:58:28;6.10;99.90
45012;DHT22;63444;48.148;11.542;2023-04-16T03:00:54;6.00;99.90
45012;DHT22;63444;48.148;11.542;2023-04-16T03:03:20;6.00;99.90
45012;DHT22;63444;48.148;11.542;2023-04-16T03:05:46;6.10;99.90
45012;DHT22;63444;48.148;11.542;2023-04-16T03:08:12;6.00;99.90
45012;DHT22;63444;48.148;11.542;2023-04-16T03:10:37;6.00;99.90
45012;DHT22;63444;48.148;11.542;2023-04-16T03:13:03;6.10;99.90
45012;DHT22;63444;48.148;11.542;2023-04-16T03:15:29;6.10;99.90
45012;DHT22;63444;48.148;11.542;2023-04-16T03:17:56;6.10;99.90
45012;DHT22;63444;48.148;11.542;2023-04-16T03:20:22;6.10;99.90
45012;DHT22;63444;48.148;11.542;2023-04-16T03:22:48;6.20;99.90
45012;DHT22;63444;48.148;11.542;2023-04-16T03:25:14;6.10;99.90
45012;DHT22;63444;48.148;11.542;2023-04-16T03:27:40;6.10;99.90
45012;DHT22;63444;48.148;11.542;2023-04-16T03:30:15;6.10;99.90
45012;DHT22;63444;48.148;11.542;2023-04-16T03:32:40;6.10;99.90
45012;DHT22;63444;48.148;11.542;2023-04-16T03:35:07;6.10;99.90
45012;DHT22;63444;48.148;11.542;2023-04-16T03:37:33;6.10;99.90
45012;DHT22;63444;48.148;11.542;2023-04-16T03:39:59;6.00;99.90
45012;DHT22;63444;48.148;11.542;2023-04-16T03:42:25;6.10;99.90
45012;DHT22;63444;48.148;11.542;2023-04-16T03:44:51;5.90;99.90
45012;DHT22;63444;48.148;11.542;2023-04-16T03:47:18;5.90;99.90
45012;DHT22;63444;48.148;11.542;2023-04-16T03:49:44;6.00;99.90
45012;DHT22;63444;48.148;11.542;2023-04-16T03:52:09;5.90;99.90
45012;DHT22;63444;48.148;11.542;2023-04-16T03:54:35;5.90;99.90
45012;DHT22;63444;48.148;11.542;2023-04-16T03:57:01;5.90;99.90
45012;DHT22;63444;48.148;11.542;2023-04-16T03:59:27;6.00;99.90
45012;DHT22;63444;48.148;11.542;2023-04-16T04:01:52;5.90;99.90
45012;DHT22;63444;48.148;11.542;2023-04-16T04:04:18;5.90;99.90
45012;DHT22;63444;48.148;11.542;2023-04-16T04:06:44;6.00;99.90
45012;DHT22;63444;48.148;11.542;2023-04-16T04:09:11;6.20;99.90
45012;DHT22;63444;48.148;11.542;2023-04-16T04:11:36;6.00;99.90
45012;DHT22;63444;48.148;11.542;2023-04-16T04:14:02;5.90;99.90
45012;DHT22;63444;48.148;11.542;2023-04-16T04:16:30;6.00;99.90
45012;DHT22;63444;48.148;11.542;2023-04-16T04:18:55;5.90;99.90
45012;DHT22;63444;48.148;11.542;2023-04-16T04:21:21;5.80;99.90
45012;DHT22;63444;48.148;11.542;2023-04-16T04:23:47;5.90;99.90
45012;DHT22;63444;48.148;11.542;2023-04-16T04:26:12;5.90;99.90
45012;DHT22;63444;48.148;11.542;2023-04-16T04:28:38;5.80;99.90
45012;DHT22;63444;48.148;11.542;2023-04-16T04:31:04;5.90;99.90
45012;DHT22;63444;48.148;11.542;2023-04-16T04:33:29;5.90;99.90
45012;DHT22;63444;48.148;11.542;2023-04-16T04:35:55;5.90;99.90
45012;DHT22;63444;48.148;11.542;2023-04-16T04:38:21;5.90;99.90
45012;DHT22;63444;48.148;11.542;2023-04-16T04:40:50;5.80;99.90
45012;DHT22;63444;48.148;11.542;2023-04-16T04:43:15;5.90;99.90
45012;DHT22;63444;48.148;11.542;2023-04-16T04:45:41;5.90;99.90
45012;DHT22;63444;48.148;11.542;2023-04-16T04:48:07;5.90;99.90
45012;DHT22;63444;48.148;11.542;2023-04-16T04:50:32;5.90;99.90
45012;DHT22;63444;48.148;11.542;2023-04-16T04:52:58;5.90;99.90
45012;DHT22;63444;48.148;11.542;2023-04-16T04:55:24;5.90;99.90
45012;DHT22;63444;48.148;11.542;2023-04-16T04:57:49;5.90;99.90
45012;DHT22;63444;48.148;11.542;2023-04-16T05:00:15;5.90;99.90
45012;DHT22;63444;48.148;11.542;2023-04-16T05:02:41;5.90;99.90
45012;DHT22;63444;48.148;11.542;2023-04-16T05:05:06;5.90;99.90
45012;DHT22;63444;48.148;11.542;2023-04-16T05:07:33;5.90;99.90
45012;DHT22;63444;48.148;11.542;2023-04-16T05:09:59;5.90;99.90
45012;DHT22;63444;48.148;11.542;2023-04-16T05:12:25;5.90;99.90
45012;DHT22;63444;48.148;11.542;2023-04-16T05:14:50;5.90;99.90
45012;DHT22;63444;48.148;11.542;2023-04-16T05:17:16;6.10;99.90
45012;DHT22;63444;48.148;11.542;2023-04-16T05:19:42;5.90;99.90
45012;DHT22;63444;48.148;11.542;2023-04-16T05:22:07;6.00;99.90
45012;DHT22;63444;48.148;11.542;2023-04-16T05:24:33;6.00;99.90
45012;DHT22;63444;48.148;11.542;2023-04-16T05:26:58;6.00;99.90
45012;DHT22;63444;48.148;11.542;2023-04-16T05:29:24;6.00;99.90
45012;DHT22;63444;48.148;11.542;2023-04-16T05:31:50;6.00;99.90
45012;DHT22;63444;48.148;11.542;2023-04-16T05:34:16;6.00;99.90
45012;DHT22;63444;48.148;11.542;2023-04-16T05:36:41;6.00;99.90
45012;DHT22;63444;48.148;11.542;2023-04-16T05:39:07;6.10;99.90
45012;DHT22;63444;48.148;11.542;2023-04-16T05:41:33;6.10;99.90
45012;DHT22;63444;48.148;11.542;2023-04-16T05:43:58;6.00;99.90
45012;DHT22;63444;48.148;11.542;2023-04-16T05:46:24;6.10;99.90
45012;DHT22;63444;48.148;11.542;2023-04-16T05:48:50;6.10;99.90
45012;DHT22;63444;48.148;11.542;2023-04-16T05:51:15;6.10;99.90
45012;DHT22;63444;48.148;11.542;2023-04-16T05:53:41;6.10;99.90
45012;DHT22;63444;48.148;11.542;2023-04-16T05:56:07;6.20;99.90
45012;DHT22;63444;48.148;11.542;2023-04-16T05:58:32;6.00;99.90
45012;DHT22;63444;48.148;11.542;2023-04-16T06:00:59;6.10;99.90
45012;DHT22;63444;48.148;11.542;2023-04-16T06:03:25;6.10;99.90
45012;DHT22;63444;48.148;11.542;2023-04-16T06:05:51;6.30;99.90
45012;DHT22;63444;48.148;11.542;2023-04-16T06:08:16;6.20;99.90
45012;DHT22;63444;48.148;11.542;2023-04-16T06:10:44;6.20;99.90
45012;DHT22;63444;48.148;11.542;2023-04-16T06:13:10;6.30;99.90
45012;DHT22;63444;48.148;11.542;2023-04-16T06:15:36;6.30;99.90
45012;DHT22;63444;48.148;11.542;2023-04-16T06:18:01;6.30;99.90
45012;DHT22;63444;48.148;11.542;2023-04-16T06:20:27;6.30;99.90
45012;DHT22;63444;48.148;11.542;2023-04-16T06:22:52;6.40;99.90
45012;DHT22;63444;48.148;11.542;2023-04-16T06:25:18;6.30;99.90
45012;DHT22;63444;48.148;11.542;2023-04-16T06:27:44;6.40;99.90
45012;DHT22;63444;48.148;11.542;2023-04-16T06:30:15;6.40;99.90
45012;DHT22;63444;48.148;11.542;2023-04-16T06:32:42;6.40;99.90
45012;DHT22;63444;48.148;11.542;2023-04-16T06:35:08;6.40;99.90
45012;DHT22;63444;48.148;11.542;2023-04-16T06:37:33;6.50;99.90
45012;DHT22;63444;48.148;11.542;2023-04-16T06:40:00;6.50;99.90
45012;DHT22;63444;48.148;11.542;2023-04-16T06:42:26;6.50;99.90
45012;DHT22;63444;48.148;11.542;2023-04-16T06:44:52;6.70;99.90
45012;DHT22;63444;48.148;11.542;2023-04-16T06:47:18;6.50;99.90
45012;DHT22;63444;48.148;11.542;2023-04-16T06:49:43;6.50;99.90
45012;DHT22;63444;48.148;11.542;2023-04-16T06:52:09;6.50;99.90
45012;DHT22;63444;48.148;11.542;2023-04-16T06:54:35;6.50;99.90
45012;DHT22;63444;48.148;11.542;2023-04-16T06:57:01;6.60;99.90
45012;DHT22;63444;48.148;11.542;2023-04-16T06:59:26;6.50;99.90
45012;DHT22;63444;48.148;11.542;2023-04-16T07:01:52;6.60;99.90
45012;DHT22;63444;48.148;11.542;2023-04-16T07:04:18;6.80;99.90
45012;DHT22;63444;48.148;11.542;2023-04-16T07:06:43;6.60;99.90
45012;DHT22;63444;48.148;11.542;2023-04-16T07:09:09;6.60;99.90
45012;DHT22;63444;48.148;11.542;2023-04-16T07:11:35;6.60;99.90
45012;DHT22;63444;48.148;11.542;2023-04-16T07:14:00;6.70;99.90
45012;DHT22;63444;48.148;11.542;2023-04-16T07:16:26;6.80;99.90
45012;DHT22;63444;48.148;11.542;2023-04-16T07:18:51;6.80;99.90
45012;DHT22;63444;48.148;11.542;2023-04-16T07:21:17;7.00;99.90
45012;DHT22;63444;48.148;11.542;2023-04-16T07:23:43;7.00;99.90
45012;DHT22;63444;48.148;11.542;2023-04-16T07:26:08;7.00;99.90
45012;DHT22;63444;48.148;11.542;2023-04-16T07:28:35;6.90;99.90
45012;DHT22;63444;48.148;11.542;2023-04-16T07:31:01;6.90;99.90
45012;DHT22;63444;48.148;11.542;2023-04-16T07:33:27;6.90;99.90
45012;DHT22;63444;48.148;11.542;2023-04-16T07:35:52;7.00;99.90
45012;DHT22;63444;48.148;11.542;2023-04-16T07:38:18;7.00;99.90
45012;DHT22;63444;48.148;11.542;2023-04-16T07:40:44;6.90;99.90
45012;DHT22;63444;48.148;11.542;2023-04-16T07:43:09;6.90;99.90
45012;DHT22;63444;48.148;11.542;2023-04-16T07:45:35;6.90;99.90
45012;DHT22;63444;48.148;11.542;2023-04-16T07:48:01;6.90;99.90
45012;DHT22;63444;48.148;11.542;2023-04-16T07:50:26;7.00;99.90
45012;DHT22;63444;48.148;11.542;2023-04-16T07:52:52;7.00;99.90
45012;DHT22;63444;48.148;11.542;2023-04-16T07:55:18;7.10;99.90
45012;DHT22;63444;48.148;11.542;2023-04-16T07:57:44;7.00;99.90
45012;DHT22;63444;48.148;11.542;2023-04-16T08:00:10;7.00;99.90
45012;DHT22;63444;48.148;11.542;2023-04-16T08:02:35;7.00;99.90
45012;DHT22;63444;48.148;11.542;2023-04-16T08:05:01;7.00;99.90
45012;DHT22;63444;48.148;11.542;2023-04-16T08:07:27;7.00;99.90
45012;DHT22;63444;48.148;11.542;2023-04-16T08:09:53;7.00;99.90
45012;DHT22;63444;48.148;11.542;2023-04-16T08:12:19;7.20;99.90
45012;DHT22;63444;48.148;11.542;2023-04-16T08:14:45;7.20;99.90
45012;DHT22;63444;48.148;11.542;2023-04-16T08:17:12;7.20;99.90
45012;DHT22;63444;48.148;11.542;2023-04-16T08:19:37;7.40;99.90
45012;DHT22;63444;48.148;11.542;2023-04-16T08:22:03;7.40;99.90
45012;DHT22;63444;48.148;11.542;2023-04-16T08:24:29;7.40;99.90
45012;DHT22;63444;48.148;11.542;2023-04-16T08:26:54;7.40;99.90
45012;DHT22;63444;48.148;11.542;2023-04-16T08:29:21;7.40;99.90
45012;DHT22;63444;48.148;11.542;2023-04-16T08:31:49;7.40;99.90
45012;DHT22;63444;48.148;11.542;2023-04-16T08:34:15;7.40;99.90
45012;DHT22;63444;48.148;11.542;2023-04-16T08:36:41;7.40;99.90
45012;DHT22;63444;48.148;11.542;2023-04-16T08:39:07;7.40;99.90
45012;DHT22;63444;48.148;11.542;2023-04-16T08:41:35;7.50;99.90
45012;DHT22;63444;48.148;11.542;2023-04-16T08:44:08;7.60;99.90
45012;DHT22;63444;48.148;11.542;2023-04-16T08:46:36;7.80;99.90
45012;DHT22;63444;48.148;11.542;2023-04-16T08:49:05;7.80;99.90
45012;DHT22;63444;48.148;11.542;2023-04-16T08:51:33;7.90;99.90
45012;DHT22;63444;48.148;11.542;2023-04-16T08:54:07;8.10;99.90
45012;DHT22;63444;48.148;11.542;2023-04-16T08:56:35;8.20;99.90
45012;DHT22;63444;48.148;11.542;2023-04-16T08:59:02;8.30;99.90
45012;DHT22;63444;48.148;11.542;2023-04-16T09:01:31;8.30;99.90
45012;DHT22;63444;48.148;11.542;2023-04-16T09:03:58;8.40;99.90
45012;DHT22;63444;48.148;11.542;2023-04-16T09:06:27;8.50;99.90
45012;DHT22;63444;48.148;11.542;2023-04-16T09:08:54;8.50;99.90
45012;DHT22;63444;48.148;11.542;2023-04-16T09:11:20;8.50;99.90
45012;DHT22;63444;48.148;11.542;2023-04-16T09:13:46;8.40;99.90
45012;DHT22;63444;48.148;11.542;2023-04-16T09:16:13;8.50;99.90
45012;DHT22;63444;48.148;11.542;2023-04-16T09:18:39;8.50;99.90
45012;DHT22;63444;48.148;11.542;2023-04-16T09:21:10;8.50;99.90
45012;DHT22;63444;48.148;11.542;2023-04-16T09:23:37;8.60;99.90
45012;DHT22;63444;48.148;11.542;2023-04-16T09:26:04;8.60;99.90
45012;DHT22;63444;48.148;11.542;2023-04-16T09:28:46;8.70;99.90
45012;DHT22;63444;48.148;11.542;2023-04-16T09:31:17;8.80;99.90
45012;DHT22;63444;48.148;11.542;2023-04-16T09:33:59;8.90;99.90
45012;DHT22;63444;48.148;11.542;2023-04-16T09:36:26;8.90;99.90
45012;DHT22;63444;48.148;11.542;2023-04-16T09:38:53;9.00;99.90
45012;DHT22;63444;48.148;11.542;2023-04-16T09:41:19;9.10;99.90
45012;DHT22;63444;48.148;11.542;2023-04-16T09:44:00;9.20;99.90
45012;DHT22;63444;48.148;11.542;2023-04-16T09:46:31;9.30;99.90
45012;DHT22;63444;48.148;11.542;2023-04-16T09:49:04;9.30;99.90
45012;DHT22;63444;48.148;11.542;2023-04-16T09:51:36;9.40;99.90
45012;DHT22;63444;48.148;11.542;2023-04-16T09:54:04;9.40;99.90
45012;DHT22;63444;48.148;11.542;2023-04-16T09:56:30;9.40;99.90
45012;DHT22;63444;48.148;11.542;2023-04-16T09:58:58;9.30;99.90
45012;DHT22;63444;48.148;11.542;2023-04-16T10:01:23;9.10;99.90
45012;DHT22;63444;48.148;11.542;2023-04-16T10:03:53;9.10;99.90
45012;DHT22;63444;48.148;11.542;2023-04-16T10:06:22;9.00;99.90
45012;DHT22;63444;48.148;11.542;2023-04-16T10:08:48;9.10;99.90
45012;DHT22;63444;48.148;11.542;2023-04-16T10:11:15;9.10;99.90
45012;DHT22;63444;48.148;11.542;2023-04-16T10:13:41;9.10;99.90
45012;DHT22;63444;48.148;11.542;2023-04-16T10:16:10;9.20;99.90
45012;DHT22;63444;48.148;11.542;2023-04-16T10:18:40;9.20;99.90
45012;DHT22;63444;48.148;11.542;2023-04-16T10:21:06;9.20;99.90
45012;DHT22;63444;48.148;11.542;2023-04-16T10:23:33;9.20;99.90
45012;DHT22;63444;48.148;11.542;2023-04-16T10:26:00;9.20;99.90
45012;DHT22;63444;48.148;11.542;2023-04-16T10:28:26;9.40;99.90
45012;DHT22;63444;48.148;11.542;2023-04-16T10:30:55;9.30;99.90
45012;DHT22;63444;48.148;11.542;2023-04-16T10:33:41;9.30;99.90
45012;DHT22;63444;48.148;11.542;2023-04-16T10:36:17;9.40;99.90
45012;DHT22;63444;48.148;11.542;2023-04-16T10:38:49;9.40;99.90
45012;DHT22;63444;48.148;11.542;2023-04-16T10:41:15;9.40;99.90
45012;DHT22;63444;48.148;11.542;2023-04-16T10:43:49;9.40;99.90
45012;DHT22;63444;48.148;11.542;2023-04-16T10:46:22;9.50;99.90
45012;DHT22;63444;48.148;11.542;2023-04-16T10:48:51;9.60;99.90
45012;DHT22;63444;48.148;11.542;2023-04-16T10:51:34;9.70;99.90
45012;DHT22;63444;48.148;11.542;2023-04-16T10:54:18;9.70;99.90
45012;DHT22;63444;48.148;11.542;2023-04-16T10:56:45;9.80;99.90
45012;DHT22;63444;48.148;11.542;2023-04-16T10:59:12;9.60;99.90
45012;DHT22;63444;48.148;11.542;2023-04-16T11:01:42;9.60;99.90
45012;DHT22;63444;48.148;11.542;2023-04-16T11:14:53;9.90;99.90
45012;DHT22;63444;48.148;11.542;2023-04-16T11:17:20;10.10;99.90
45012;DHT22;63444;48.148;11.542;2023-04-16T11:19:46;10.10;99.90
45012;DHT22;63444;48.148;11.542;2023-04-16T11:22:14;10.20;99.90
45012;DHT22;63444;48.148;11.542;2023-04-16T11:24:43;10.30;99.90
45012;DHT22;63444;48.148;11.542;2023-04-16T11:27:13;10.30;99.90
45012;DHT22;63444;48.148;11.542;2023-04-16T11:29:40;10.30;99.90
45012;DHT22;63444;48.148;11.542;2023-04-16T11:32:06;10.30;99.90
45012;DHT22;63444;48.148;11.542;2023-04-16T11:34:31;10.40;99.90
45012;DHT22;63444;48.148;11.542;2023-04-16T11:36:57;10.50;99.90
45012;DHT22;63444;48.148;11.542;2023-04-16T11:39:23;10.60;99.90
45012;DHT22;63444;48.148;11.542;2023-04-16T11:41:50;10.40;99.90
45012;DHT22;63444;48.148;11.542;2023-04-16T11:46:42;10.30;99.90
45012;DHT22;63444;48.148;11.542;2023-04-16T11:49:08;10.40;99.90
45012;DHT22;63444;48.148;11.542;2023-04-16T11:51:42;10.30;99.90
45012;DHT22;63444;48.148;11.542;2023-04-16T11:54:09;10.30;99.90
45012;DHT22;63444;48.148;11.542;2023-04-16T11:56:44;10.20;99.90
45012;DHT22;63444;48.148;11.542;2023-04-16T11:59:13;10.20;99.90
45012;DHT22;63444;48.148;11.542;2023-04-16T12:01:44;10.10;99.90
45012;DHT22;63444;48.148;11.542;2023-04-16T12:04:11;10.10;99.90
45012;DHT22;63444;48.148;11.542;2023-04-16T12:06:37;10.20;99.90
45012;DHT22;63444;48.148;11.542;2023-04-16T12:09:24;10.20;99.90
45012;DHT22;63444;48.148;11.542;2023-04-16T12:11:52;10.30;99.90
45012;DHT22;63444;48.148;11.542;2023-04-16T12:14:17;10.20;99.90
45012;DHT22;63444;48.148;11.542;2023-04-16T12:16:43;10.30;99.90
45012;DHT22;63444;48.148;11.542;2023-04-16T12:19:11;10.30;99.90
45012;DHT22;63444;48.148;11.542;2023-04-16T12:21:38;10.40;99.90
45012;DHT22;63444;48.148;11.542;2023-04-16T12:24:06;10.40;99.90
45012;DHT22;63444;48.148;11.542;2023-04-16T12:26:44;10.30;99.90
45012;DHT22;63444;48.148;11.542;2023-04-16T12:29:18;10.20;99.90
45012;DHT22;63444;48.148;11.542;2023-04-16T12:31:45;10.20;99.90
45012;DHT22;63444;48.148;11.542;2023-04-16T12:34:12;10.20;99.90
45012;DHT22;63444;48.148;11.542;2023-04-16T12:36:39;10.20;99.90
45012;DHT22;63444;48.148;11.542;2023-04-16T12:39:05;10.30;99.90
45012;DHT22;63444;48.148;11.542;2023-04-16T12:41:33;10.20;99.90
45012;DHT22;63444;48.148;11.542;2023-04-16T12:44:09;10.20;99.90
45012;DHT22;63444;48.148;11.542;2023-04-16T12:46:40;10.10;99.90
45012;DHT22;63444;48.148;11.542;2023-04-16T12:49:07;10.00;99.90
45012;DHT22;63444;48.148;11.542;2023-04-16T12:51:34;9.90;99.90
45012;DHT22;63444;48.148;11.542;2023-04-16T12:54:04;9.90;99.90
45012;DHT22;63444;48.148;11.542;2023-04-16T12:56:32;9.90;99.90
45012;DHT22;63444;48.148;11.542;2023-04-16T12:58:58;9.90;99.90
45012;DHT22;63444;48.148;11.542;2023-04-16T13:01:24;9.80;99.90
45012;DHT22;63444;48.148;11.542;2023-04-16T13:03:50;9.70;99.90
45012;DHT22;63444;48.148;11.542;2023-04-16T13:06:16;9.70;99.90
45012;DHT22;63444;48.148;11.542;2023-04-16T13:08:43;9.70;99.90
45012;DHT22;63444;48.148;11.542;2023-04-16T13:11:09;9.70;99.90
45012;DHT22;63444;48.148;11.542;2023-04-16T13:13:35;9.80;99.90
45012;DHT22;63444;48.148;11.542;2023-04-16T13:16:01;9.80;99.90
45012;DHT22;63444;48.148;11.542;2023-04-16T13:18:31;9.60;99.90
45012;DHT22;63444;48.148;11.542;2023-04-16T13:20:57;9.50;99.90
45012;DHT22;63444;48.148;11.542;2023-04-16T13:23:23;9.40;99.90
45012;DHT22;63444;48.148;11.542;2023-04-16T13:25:49;9.50;99.90
45012;DHT22;63444;48.148;11.542;2023-04-16T13:28:14;9.50;99.90
45012;DHT22;63444;48.148;11.542;2023-04-16T13:30:41;9.50;99.90
45012;DHT22;63444;48.148;11.542;2023-04-16T13:33:07;9.50;99.90
45012;DHT22;63444;48.148;11.542;2023-04-16T13:35:34;9.50;99.90
45012;DHT22;63444;48.148;11.542;2023-04-16T13:38:00;9.60;99.90
45012;DHT22;63444;48.148;11.542;2023-04-16T13:40:25;9.60;99.90
45012;DHT22;63444;48.148;11.542;2023-04-16T13:42:51;9.50;99.90
45012;DHT22;63444;48.148;11.542;2023-04-16T13:45:17;9.50;99.90
45012;DHT22;63444;48.148;11.542;2023-04-16T13:47:45;9.40;99.90
45012;DHT22;63444;48.148;11.542;2023-04-16T13:50:11;9.60;99.90
45012;DHT22;63444;48.148;11.542;2023-04-16T13:52:37;9.50;99.90
45012;DHT22;63444;48.148;11.542;2023-04-16T13:55:03;9.60;99.90
45012;DHT22;63444;48.148;11.542;2023-04-16T13:57:29;9.60;99.90
45012;DHT22;63444;48.148;11.542;2023-04-16T13:59:55;9.60;99.90
45012;DHT22;63444;48.148;11.542;2023-04-16T14:02:21;9.70;99.90
45012;DHT22;63444;48.148;11.542;2023-04-16T14:04:47;9.80;99.90
45012;DHT22;63444;48.148;11.542;2023-04-16T14:07:13;9.80;99.90
45012;DHT22;63444;48.148;11.542;2023-04-16T14:09:39;9.80;99.90
45012;DHT22;63444;48.148;11.542;2023-04-16T14:12:05;9.70;99.90
45012;DHT22;63444;48.148;11.542;2023-04-16T14:14:31;9.80;99.90
45012;DHT22;63444;48.148;11.542;2023-04-16T14:17:00;9.80;99.90
45012;DHT22;63444;48.148;11.542;2023-04-16T14:19:27;9.70;99.90
45012;DHT22;63444;48.148;11.542;2023-04-16T14:21:53;9.70;99.90
45012;DHT22;63444;48.148;11.542;2023-04-16T14:24:18;9.70;99.90
45012;DHT22;63444;48.148;11.542;2023-04-16T14:26:44;9.80;99.90
45012;DHT22;63444;48.148;11.542;2023-04-16T14:29:10;9.80;99.90
45012;DHT22;63444;48.148;11.542;2023-04-16T14:31:36;9.80;99.90
45012;DHT22;63444;48.148;11.542;2023-04-16T14:34:01;9.90;99.90
45012;DHT22;63444;48.148;11.542;2023-04-16T14:36:27;9.90;99.90
45012;DHT22;63444;48.148;11.542;2023-04-16T14:38:54;9.80;99.90
45012;DHT22;63444;48.148;11.542;2023-04-16T14:41:20;9.80;99.90
45012;DHT22;63444;48.148;11.542;2023-04-16T14:43:47;9.70;99.90
45012;DHT22;63444;48.148;11.542;2023-04-16T14:46:13;9.70;99.90
45012;DHT22;63444;48.148;11.542;2023-04-16T14:48:42;9.70;99.90
45012;DHT22;63444;48.148;11.542;2023-04-16T14:51:08;9.80;99.90
45012;DHT22;63444;48.148;11.542;2023-04-16T14:53:36;9.80;99.90
45012;DHT22;63444;48.148;11.542;2023-04-16T14:56:01;9.80;99.90
45012;DHT22;63444;48.148;11.542;2023-04-16T14:58:27;9.70;99.90
45012;DHT22;63444;48.148;11.542;2023-04-16T15:00:53;9.50;99.90
45012;DHT22;63444;48.148;11.542;2023-04-16T15:03:18;9.50;99.90
45012;DHT22;63444;48.148;11.542;2023-04-16T15:05:44;9.50;99.90
45012;DHT22;63444;48.148;11.542;2023-04-16T15:08:11;9.60;99.90
45012;DHT22;63444;48.148;11.542;2023-04-16T15:10:37;9.80;99.90
45012;DHT22;63444;48.148;11.542;2023-04-16T15:13:02;9.70;99.90
45012;DHT22;63444;48.148;11.542;2023-04-16T15:15:28;9.80;99.90
45012;DHT22;63444;48.148;11.542;2023-04-16T15:17:54;9.80;99.90
45012;DHT22;63444;48.148;11.542;2023-04-16T15:20:21;10.00;99.90
45012;DHT22;63444;48.148;11.542;2023-04-16T15:22:46;9.80;99.90
45012;DHT22;63444;48.148;11.542;2023-04-16T15:40:50;9.50;99.90
45012;DHT22;63444;48.148;11.542;2023-04-16T15:43:18;9.50;99.90
45012;DHT22;63444;48.148;11.542;2023-04-16T15:45:49;9.50;99.90
45012;DHT22;63444;48.148;11.542;2023-04-16T15:48:16;9.50;99.90
45012;DHT22;63444;48.148;11.542;2023-04-16T15:50:43;9.60;99.90
45012;DHT22;63444;48.148;11.542;2023-04-16T15:53:09;9.40;99.90
45012;DHT22;63444;48.148;11.542;2023-04-16T15:55:34;9.50;99.90